8°C
Porth, Newquay, Cornwall. UK  Tell A Friend
 Ad **Ad
Updated27/03/2017 03:45 
 


More METAR Reports From


Metar Station     Metar Station     Metar Station     Metar Station     Metar Station
EGBB Birmingham     EGBE Coventry     EGLL London Heathrow     EGKK London Gatwick     EGGP Liverpool
EGGW Luton     EGNX East Midlands     EGLC London City     EGCC Mancester Intl     EGSS Stanstead
Local Metars Here                                
EGBB - Birmingham Airpo, United Kingdom
Updated: 27/03/2017 03:20
Overcast
Overcast
 Wind from ENE
Wind: ENE 7 mph , 11 km/h, 6 kts
Temperature: 4°C
Wind Chill: 1°C
Dew Point: 4°C
Humidity: 100%
Barometer: 1024 hPa
Clouds: Overcast
Visibility: 6 miles , 9 km
Cloud details: Overcast 152 m
2017/03/27 02:20 EGBB 270220Z 06006KT 9000 OVC005 04/04 Q1024
EGBE - Coventry Airport, United Kingdom
Updated: 26/03/2017 18:50

NOT Current
Few Clouds
Few Clouds
 Wind from ENE
Wind: ENE 14 mph , 22 km/h, 12 kts
Temperature: 12°C
Dew Point: 7°C
Humidity: 72%
Barometer: 1023 hPa
Clouds: Few Clouds
Visibility: 6 miles , 10 km
Cloud details: Few Clouds 1036 m
2017/03/26 17:50 EGBE 261750Z 06012KT 9999 FEW034 12/07 Q1023
 
EGLL - London/Heathrow, United Kingdom
Updated: 27/03/2017 03:20
Overcast
Overcast
 Wind from NE
Wind: NE 6 mph , 9 km/h, 5 kts
Temperature: 7°C
Wind Chill: 6°C
Dew Point: 5°C
Humidity: 87%
Barometer: 1023 hPa
Clouds: Overcast
Visibility: 5 miles , 8 km
Cloud details: Overcast 244 m
2017/03/27 02:20 EGLL 270220Z AUTO 05005KT 8000 OVC008 07/05 Q1023 NOSIG
EGKK - London/Gatwick A, United Kingdom
Updated: 27/03/2017 03:20
Haze, Partly cloudy
Haze, Partly cloudy
 Wind from ENE
Wind: ENE 3 mph , 6 km/h, 3 kts
Temperature: 4°C
Dew Point: 3°C
Humidity: 93%
Barometer: 1022 hPa
Summary: Haze
Clouds: Partly Cloudy
Visibility: 3 miles , 5 km
2017/03/27 02:20 EGKK 270220Z 06003KT 5000 HZ NSC 04/03 Q1022
 
EGGP - Liverpool Airpor, United Kingdom
Updated: 27/03/2017 03:20
Clear
Clear
 Wind from ENE
Wind: ENE 7 mph , 11 km/h, 6 kts
Temperature: 5°C
Wind Chill: 2°C
Dew Point: 4°C
Humidity: 93%
Barometer: 1025 hPa
Summary: Clear
Visibility: greater than 7 miles , 10 km
2017/03/27 02:20 EGGP 270220Z 07006KT CAVOK 05/04 Q1025
EGGW - Luton Airport, United Kingdom
Updated: 27/03/2017 03:20
Fog, Overcast
Fog, Overcast
 Wind from NE
Wind: NE 7 mph , 11 km/h, 6 kts
Temperature: 4°C
Wind Chill: 1°C
Dew Point: 3°C
Humidity: 93%
Barometer: 1023 hPa
Summary: Fog
Clouds: Overcast
Visibility: 0 mile , 0 km
Cloud details: Overcast 30 m
2017/03/27 02:20 EGGW 270220Z AUTO 04006KT 0400 R08/1100 FG OVC001 04/03 Q1023
 
EGNX - East Midlands, United Kingdom
Updated: 27/03/2017 03:20
Mostly Cloudy
Mostly Cloudy
 Wind from ENE
Wind: ENE 9 mph , 15 km/h, 8 kts
Temperature: 4°C
Wind Chill: 1°C
Dew Point: 3°C
Humidity: 93%
Barometer: 1025 hPa
Clouds: Mostly Cloudy
Visibility: 6 miles , 10 km
Cloud details: Mostly Cloudy 183 m
2017/03/27 02:20 EGNX 270220Z 07008KT 9999 BKN006 04/03 Q1025
EGLC - London City Airp, United Kingdom
Updated: 27/03/2017 03:20
Haze, Overcast
Haze, Overcast
 Wind from NE
Wind: NE 8 mph , 13 km/h, 7 kts
Temperature: 7°C
Wind Chill: 5°C
Dew Point: 6°C
Humidity: 93%
Barometer: 1023 hPa
Summary: Haze
Clouds: Overcast
Visibility: 2 miles , 4 km
Cloud details: Overcast 122 m
2017/03/27 02:20 EGLC 270220Z AUTO 05007KT 4000 HZ OVC004 07/06 Q1023
 
EGCC - Manchester Intl, United Kingdom
Updated: 27/03/2017 03:20
Few Clouds
Few Clouds
 Wind from varies
Wind: varies 3 mph , 6 km/h, 3 kts
Temperature: 5°C
Dew Point: 3°C
Humidity: 87%
Barometer: 1024 hPa
Clouds: Few Clouds
Visibility: 6 miles , 10 km
Cloud details: Few Clouds 305 m
2017/03/27 02:20 EGCC 270220Z AUTO VRB03KT 9999 FEW010 05/03 Q1024 NOSIG
EGSS - Stansted Airport, United Kingdom
Updated: 27/03/2017 03:20
Mist, Overcast
Mist, Overcast
 Wind from ENE
Wind: ENE 12 mph , 19 km/h, 10 kts
Temperature: 6°C
Wind Chill: 3°C
Dew Point: 6°C
Humidity: 100%
Barometer: 1023 hPa
Summary: Mist
Clouds: Overcast
Visibility: 1 mile , 1 km
Cloud details: Overcast 61 m
2017/03/27 02:20 EGSS 270220Z 06010KT 1200 BR OVC002 06/06 Q1023

Metar, brief description

METAR is a format for reporting weather information. A METAR weather report is predominantly used by pilots in fulfillment of a part of a pre-flight weather briefing, and by meteorologists, who use aggregated METAR information to assist in weather forecasting.

Raw METAR is the most popular format in the world for the transmission of weather data. Each METAR report contains essential information about the current weather conditions: Temperature, Dew Point, Barometric Pressure, Wind Speed and Direction, Visibility, Clouds Cover, Current Weather (Rain, Thunderstorms, Hail, Snow and so on...), here is an example of a raw metar report for EGHQ (Newquay airport).
METAR not available